CheckWX is a tool to help pilots better visualize weather data.  It is not intended as a substitute for an official pre-flight weather briefing.

10:10:37 UTC

KSRQ TAF
Sarasota / Bradenton International Airport
Sarasota/Bradenton, Florida, USA
KSRQ 260520Z 2606/2706 VRB03KT P6SM SCT250 FM261400 03007KT P6SM SCT030 SCT250 FM261900 31012KT P6SM VCTS SCT050CB SCT250 FM270100 04006KT P6SM VCTS SCT060CB SCT080 BKN250 FM270400 07004KT P6SM SCT080 BKN200

Jun-26@
06:00 UTC

Jun-26 @ 06:00 UTC

Jun-26@
14:00 UTC

Jun-26 @ 14:00 UTC

KSRQ 260520Z 2606/2706 VRB03KT P6SM SCT250
Wind
  • Variable at 3 KTS
Cloud Levels
  • Scattered at 25,000' AGL

Jun-26@
14:00 UTC

Jun-26 @ 14:00 UTC

Jun-26@
19:00 UTC

Jun-26 @ 19:00 UTC

FM261400 03007KT P6SM SCT030 SCT250

From

From Standard forecast or significant change

Wind
  • 030° at 7 KTS
Cloud Levels
  • Scattered at 3,000' AGL
  • Scattered at 25,000' AGL

Jun-26@
19:00 UTC

Jun-26 @ 19:00 UTC

Jun-27@
01:00 UTC

Jun-27 @ 01:00 UTC

FM261900 31012KT P6SM VCTS SCT050CB SCT250

From

From Standard forecast or significant change

Wind
  • 310° at 12 KTS
Conditions
Area Thunderstorm
Cloud Levels
  • Scattered at 5,000' AGL
  • Scattered at 25,000' AGL

Jun-27@
01:00 UTC

Jun-27 @ 01:00 UTC

Jun-27@
04:00 UTC

Jun-27 @ 04:00 UTC

FM270100 04006KT P6SM VCTS SCT060CB SCT080 BKN250

From

From Standard forecast or significant change

Wind
  • 040° at 6 KTS
Conditions
Area Thunderstorm
Cloud Levels
  • Scattered at 6,000' AGL
  • Scattered at 8,000' AGL
  • Broken at 25,000' AGL

Jun-27@
04:00 UTC

Jun-27 @ 04:00 UTC

Jun-27@
06:00 UTC

Jun-27 @ 06:00 UTC

FM270400 07004KT P6SM SCT080 BKN200

From

From Standard forecast or significant change

Wind
  • 070° at 4 KTS
Cloud Levels
  • Scattered at 8,000' AGL
  • Broken at 20,000' AGL